sensor_id;sensor_type;location;lat;lon;timestamp;P1;durP1;ratioP1;P2;durP2;ratioP2
46597;SDS011;32318;48.858;8.252;2022-09-30T00:03:09;15.70;;;4.97;;
46597;SDS011;32318;48.858;8.252;2022-09-30T00:11:11;13.93;;;4.88;;
46597;SDS011;32318;48.858;8.252;2022-09-30T00:19:15;9.63;;;4.10;;
46597;SDS011;32318;48.858;8.252;2022-09-30T00:27:15;11.95;;;4.55;;
46597;SDS011;32318;48.858;8.252;2022-09-30T00:35:17;9.02;;;4.45;;
46597;SDS011;32318;48.858;8.252;2022-09-30T00:43:37;9.35;;;5.20;;
46597;SDS011;32318;48.858;8.252;2022-09-30T00:51:44;9.82;;;4.85;;
46597;SDS011;32318;48.858;8.252;2022-09-30T00:59:47;8.50;;;4.35;;
46597;SDS011;32318;48.858;8.252;2022-09-30T01:07:50;17.27;;;4.47;;
46597;SDS011;32318;48.858;8.252;2022-09-30T01:23:59;48.70;;;16.45;;
46597;SDS011;32318;48.858;8.252;2022-09-30T01:40:45;14.82;;;5.72;;
46597;SDS011;32318;48.858;8.252;2022-09-30T01:48:55;10.30;;;4.90;;
46597;SDS011;32318;48.858;8.252;2022-09-30T01:57:06;9.20;;;4.15;;
46597;SDS011;32318;48.858;8.252;2022-09-30T02:05:28;8.45;;;4.22;;
46597;SDS011;32318;48.858;8.252;2022-09-30T02:13:46;11.02;;;4.25;;
46597;SDS011;32318;48.858;8.252;2022-09-30T02:21:55;13.30;;;4.80;;
46597;SDS011;32318;48.858;8.252;2022-09-30T02:29:59;10.13;;;4.80;;
46597;SDS011;32318;48.858;8.252;2022-09-30T02:38:14;11.10;;;5.03;;
46597;SDS011;32318;48.858;8.252;2022-09-30T02:46:22;12.05;;;5.65;;
46597;SDS011;32318;48.858;8.252;2022-09-30T02:54:32;11.15;;;5.57;;
46597;SDS011;32318;48.858;8.252;2022-09-30T03:02:39;9.07;;;5.72;;
46597;SDS011;32318;48.858;8.252;2022-09-30T03:10:40;7.78;;;4.50;;
46597;SDS011;32318;48.858;8.252;2022-09-30T03:35:42;8.82;;;4.80;;
46597;SDS011;32318;48.858;8.252;2022-09-30T03:51:53;7.53;;;3.75;;
46597;SDS011;32318;48.858;8.252;2022-09-30T03:59:54;12.77;;;4.45;;
46597;SDS011;32318;48.858;8.252;2022-09-30T04:07:56;9.45;;;4.05;;
46597;SDS011;32318;48.858;8.252;2022-09-30T04:15:56;8.43;;;3.92;;
46597;SDS011;32318;48.858;8.252;2022-09-30T04:23:57;9.57;;;4.82;;
46597;SDS011;32318;48.858;8.252;2022-09-30T04:31:57;8.48;;;3.85;;
46597;SDS011;32318;48.858;8.252;2022-09-30T04:39:57;14.30;;;4.65;;
46597;SDS011;32318;48.858;8.252;2022-09-30T04:47:59;10.90;;;4.50;;
46597;SDS011;32318;48.858;8.252;2022-09-30T04:55:59;20.63;;;5.20;;
46597;SDS011;32318;48.858;8.252;2022-09-30T05:04:00;11.02;;;6.38;;
46597;SDS011;32318;48.858;8.252;2022-09-30T05:12:01;12.07;;;5.88;;
46597;SDS011;32318;48.858;8.252;2022-09-30T05:20:02;11.75;;;6.35;;
46597;SDS011;32318;48.858;8.252;2022-09-30T05:28:03;11.35;;;6.28;;
46597;SDS011;32318;48.858;8.252;2022-09-30T05:36:04;20.98;;;9.07;;
46597;SDS011;32318;48.858;8.252;2022-09-30T05:44:06;17.20;;;8.43;;
46597;SDS011;32318;48.858;8.252;2022-09-30T05:52:08;16.95;;;7.70;;
46597;SDS011;32318;48.858;8.252;2022-09-30T06:00:08;27.67;;;9.48;;
46597;SDS011;32318;48.858;8.252;2022-09-30T06:08:09;37.00;;;13.75;;
46597;SDS011;32318;48.858;8.252;2022-09-30T06:16:10;33.03;;;14.57;;
46597;SDS011;32318;48.858;8.252;2022-09-30T06:24:11;36.55;;;15.93;;
46597;SDS011;32318;48.858;8.252;2022-09-30T06:32:13;28.70;;;14.35;;
46597;SDS011;32318;48.858;8.252;2022-09-30T06:40:13;23.95;;;13.02;;
46597;SDS011;32318;48.858;8.252;2022-09-30T06:48:15;22.77;;;9.57;;
46597;SDS011;32318;48.858;8.252;2022-09-30T06:56:16;23.83;;;11.00;;
46597;SDS011;32318;48.858;8.252;2022-09-30T07:04:17;27.67;;;10.60;;
46597;SDS011;32318;48.858;8.252;2022-09-30T07:12:17;32.50;;;14.73;;
46597;SDS011;32318;48.858;8.252;2022-09-30T07:20:18;23.30;;;10.65;;
46597;SDS011;32318;48.858;8.252;2022-09-30T07:28:18;26.42;;;12.32;;
46597;SDS011;32318;48.858;8.252;2022-09-30T07:36:20;27.63;;;10.43;;
46597;SDS011;32318;48.858;8.252;2022-09-30T07:44:25;29.85;;;11.23;;
46597;SDS011;32318;48.858;8.252;2022-09-30T07:52:26;22.75;;;9.75;;
46597;SDS011;32318;48.858;8.252;2022-09-30T08:00:26;21.80;;;10.18;;
46597;SDS011;32318;48.858;8.252;2022-09-30T08:08:26;20.38;;;9.45;;
46597;SDS011;32318;48.858;8.252;2022-09-30T08:16:26;23.70;;;11.02;;
46597;SDS011;32318;48.858;8.252;2022-09-30T08:24:27;30.80;;;11.38;;
46597;SDS011;32318;48.858;8.252;2022-09-30T08:32:30;22.95;;;9.73;;
46597;SDS011;32318;48.858;8.252;2022-09-30T08:40:32;21.38;;;11.23;;
46597;SDS011;32318;48.858;8.252;2022-09-30T08:48:44;18.65;;;10.35;;
46597;SDS011;32318;48.858;8.252;2022-09-30T08:56:55;24.15;;;10.30;;
46597;SDS011;32318;48.858;8.252;2022-09-30T09:05:03;29.52;;;11.15;;
46597;SDS011;32318;48.858;8.252;2022-09-30T09:21:53;26.80;;;13.25;;
46597;SDS011;32318;48.858;8.252;2022-09-30T09:30:06;25.33;;;12.52;;
46597;SDS011;32318;48.858;8.252;2022-09-30T09:46:25;25.83;;;12.27;;
46597;SDS011;32318;48.858;8.252;2022-09-30T09:54:29;22.90;;;13.80;;
46597;SDS011;32318;48.858;8.252;2022-09-30T10:02:32;21.25;;;11.65;;
46597;SDS011;32318;48.858;8.252;2022-09-30T10:10:35;23.15;;;12.35;;
46597;SDS011;32318;48.858;8.252;2022-09-30T10:18:43;71.22;;;39.65;;
46597;SDS011;32318;48.858;8.252;2022-09-30T10:26:43;30.85;;;13.10;;
46597;SDS011;32318;48.858;8.252;2022-09-30T10:34:44;27.92;;;14.63;;
46597;SDS011;32318;48.858;8.252;2022-09-30T10:42:45;23.60;;;11.50;;
46597;SDS011;32318;48.858;8.252;2022-09-30T10:50:52;25.05;;;11.77;;
46597;SDS011;32318;48.858;8.252;2022-09-30T10:58:55;21.63;;;11.65;;
46597;SDS011;32318;48.858;8.252;2022-09-30T11:07:10;20.90;;;11.63;;
46597;SDS011;32318;48.858;8.252;2022-09-30T11:15:25;20.58;;;11.57;;
46597;SDS011;32318;48.858;8.252;2022-09-30T11:23:35;24.70;;;13.18;;
46597;SDS011;32318;48.858;8.252;2022-09-30T11:39:58;25.92;;;11.48;;
46597;SDS011;32318;48.858;8.252;2022-09-30T11:57:23;24.63;;;10.63;;
46597;SDS011;32318;48.858;8.252;2022-09-30T12:05:17;24.33;;;10.73;;
46597;SDS011;32318;48.858;8.252;2022-09-30T12:13:28;34.53;;;11.80;;
46597;SDS011;32318;48.858;8.252;2022-09-30T12:21:35;20.45;;;11.15;;
46597;SDS011;32318;48.858;8.252;2022-09-30T12:29:42;22.90;;;10.70;;
46597;SDS011;32318;48.858;8.252;2022-09-30T12:46:30;15.45;;;7.70;;
46597;SDS011;32318;48.858;8.252;2022-09-30T12:54:55;11.95;;;6.47;;
46597;SDS011;32318;48.858;8.252;2022-09-30T13:03:04;11.93;;;5.88;;
46597;SDS011;32318;48.858;8.252;2022-09-30T13:11:20;13.07;;;5.82;;
46597;SDS011;32318;48.858;8.252;2022-09-30T13:19:42;10.05;;;4.68;;
46597;SDS011;32318;48.858;8.252;2022-09-30T13:27:51;11.40;;;5.35;;
46597;SDS011;32318;48.858;8.252;2022-09-30T13:35:56;9.00;;;4.60;;
46597;SDS011;32318;48.858;8.252;2022-09-30T13:44:04;7.53;;;4.20;;
46597;SDS011;32318;48.858;8.252;2022-09-30T13:52:23;6.35;;;3.28;;
46597;SDS011;32318;48.858;8.252;2022-09-30T14:00:33;8.30;;;2.95;;
46597;SDS011;32318;48.858;8.252;2022-09-30T14:09:00;10.48;;;5.75;;
46597;SDS011;32318;48.858;8.252;2022-09-30T14:17:15;15.75;;;5.25;;
46597;SDS011;32318;48.858;8.252;2022-09-30T14:25:23;17.80;;;5.95;;
46597;SDS011;32318;48.858;8.252;2022-09-30T14:33:24;13.50;;;5.10;;
46597;SDS011;32318;48.858;8.252;2022-09-30T14:41:27;12.38;;;5.25;;
46597;SDS011;32318;48.858;8.252;2022-09-30T14:49:29;12.73;;;5.82;;
46597;SDS011;32318;48.858;8.252;2022-09-30T14:57:33;12.35;;;4.75;;
46597;SDS011;32318;48.858;8.252;2022-09-30T15:05:34;10.38;;;4.05;;
46597;SDS011;32318;48.858;8.252;2022-09-30T15:13:35;16.40;;;4.55;;
46597;SDS011;32318;48.858;8.252;2022-09-30T15:21:36;9.93;;;3.92;;
46597;SDS011;32318;48.858;8.252;2022-09-30T15:29:37;6.87;;;2.97;;
46597;SDS011;32318;48.858;8.252;2022-09-30T15:37:37;8.43;;;3.05;;
46597;SDS011;32318;48.858;8.252;2022-09-30T15:45:38;9.35;;;2.67;;
46597;SDS011;32318;48.858;8.252;2022-09-30T16:01:50;5.97;;;3.00;;
46597;SDS011;32318;48.858;8.252;2022-09-30T16:09:55;6.00;;;2.78;;
46597;SDS011;32318;48.858;8.252;2022-09-30T16:17:58;8.30;;;3.55;;
46597;SDS011;32318;48.858;8.252;2022-09-30T16:34:21;9.07;;;3.35;;
46597;SDS011;32318;48.858;8.252;2022-09-30T16:42:24;8.88;;;3.53;;
46597;SDS011;32318;48.858;8.252;2022-09-30T16:50:37;13.15;;;4.03;;
46597;SDS011;32318;48.858;8.252;2022-09-30T16:58:37;122.03;;;11.93;;
46597;SDS011;32318;48.858;8.252;2022-09-30T17:06:38;19.58;;;5.60;;
46597;SDS011;32318;48.858;8.252;2022-09-30T17:14:39;18.52;;;6.03;;
46597;SDS011;32318;48.858;8.252;2022-09-30T17:22:41;46.42;;;8.05;;
46597;SDS011;32318;48.858;8.252;2022-09-30T17:30:42;28.88;;;7.28;;
46597;SDS011;32318;48.858;8.252;2022-09-30T17:38:45;17.63;;;7.20;;
46597;SDS011;32318;48.858;8.252;2022-09-30T17:46:45;12.68;;;5.13;;
46597;SDS011;32318;48.858;8.252;2022-09-30T17:54:46;11.85;;;5.30;;
46597;SDS011;32318;48.858;8.252;2022-09-30T18:02:48;9.70;;;4.55;;
46597;SDS011;32318;48.858;8.252;2022-09-30T18:10:48;17.60;;;4.95;;
46597;SDS011;32318;48.858;8.252;2022-09-30T18:18:49;9.67;;;4.63;;
46597;SDS011;32318;48.858;8.252;2022-09-30T18:26:49;19.00;;;4.93;;
46597;SDS011;32318;48.858;8.252;2022-09-30T18:34:49;14.20;;;5.57;;
46597;SDS011;32318;48.858;8.252;2022-09-30T18:42:53;16.38;;;5.50;;
46597;SDS011;32318;48.858;8.252;2022-09-30T18:51:00;13.07;;;5.05;;
46597;SDS011;32318;48.858;8.252;2022-09-30T18:59:02;15.50;;;5.53;;
46597;SDS011;32318;48.858;8.252;2022-09-30T19:07:03;14.10;;;4.78;;
46597;SDS011;32318;48.858;8.252;2022-09-30T19:15:08;11.02;;;4.53;;
46597;SDS011;32318;48.858;8.252;2022-09-30T19:23:09;11.52;;;4.53;;
46597;SDS011;32318;48.858;8.252;2022-09-30T19:31:10;13.85;;;4.30;;
46597;SDS011;32318;48.858;8.252;2022-09-30T19:39:14;14.85;;;4.55;;
46597;SDS011;32318;48.858;8.252;2022-09-30T19:47:14;13.68;;;5.80;;
46597;SDS011;32318;48.858;8.252;2022-09-30T19:55:15;11.05;;;5.18;;
46597;SDS011;32318;48.858;8.252;2022-09-30T20:03:16;13.85;;;5.25;;
46597;SDS011;32318;48.858;8.252;2022-09-30T20:11:17;10.18;;;4.63;;
46597;SDS011;32318;48.858;8.252;2022-09-30T20:19:19;15.75;;;5.47;;
46597;SDS011;32318;48.858;8.252;2022-09-30T20:27:19;9.65;;;4.25;;
46597;SDS011;32318;48.858;8.252;2022-09-30T20:35:20;13.15;;;4.30;;
46597;SDS011;32318;48.858;8.252;2022-09-30T20:43:21;8.63;;;4.35;;
46597;SDS011;32318;48.858;8.252;2022-09-30T20:51:21;11.43;;;4.30;;
46597;SDS011;32318;48.858;8.252;2022-09-30T20:59:21;7.72;;;4.18;;
46597;SDS011;32318;48.858;8.252;2022-09-30T21:07:23;8.60;;;4.05;;
46597;SDS011;32318;48.858;8.252;2022-09-30T21:15:24;15.63;;;4.18;;
46597;SDS011;32318;48.858;8.252;2022-09-30T21:23:25;7.95;;;4.10;;
46597;SDS011;32318;48.858;8.252;2022-09-30T21:31:26;7.03;;;4.03;;
46597;SDS011;32318;48.858;8.252;2022-09-30T21:39:26;5.43;;;3.33;;
46597;SDS011;32318;48.858;8.252;2022-09-30T21:47:26;7.10;;;3.72;;
46597;SDS011;32318;48.858;8.252;2022-09-30T21:55:27;12.82;;;4.28;;
46597;SDS011;32318;48.858;8.252;2022-09-30T22:03:28;12.82;;;3.78;;
46597;SDS011;32318;48.858;8.252;2022-09-30T22:11:36;12.27;;;3.67;;
46597;SDS011;32318;48.858;8.252;2022-09-30T22:19:36;9.25;;;4.07;;
46597;SDS011;32318;48.858;8.252;2022-09-30T22:27:37;10.95;;;4.43;;
46597;SDS011;32318;48.858;8.252;2022-09-30T22:35:37;12.13;;;4.10;;
46597;SDS011;32318;48.858;8.252;2022-09-30T22:43:56;9.35;;;4.18;;
46597;SDS011;32318;48.858;8.252;2022-09-30T22:51:56;10.05;;;4.60;;
46597;SDS011;32318;48.858;8.252;2022-09-30T22:59:57;8.10;;;3.38;;
46597;SDS011;32318;48.858;8.252;2022-09-30T23:07:58;5.65;;;3.28;;
46597;SDS011;32318;48.858;8.252;2022-09-30T23:15:58;11.80;;;4.68;;
46597;SDS011;32318;48.858;8.252;2022-09-30T23:23:59;7.68;;;4.45;;
46597;SDS011;32318;48.858;8.252;2022-09-30T23:31:59;8.40;;;3.83;;
46597;SDS011;32318;48.858;8.252;2022-09-30T23:40:00;6.47;;;4.30;;
46597;SDS011;32318;48.858;8.252;2022-09-30T23:48:00;7.00;;;3.67;;
46597;SDS011;32318;48.858;8.252;2022-09-30T23:56:01;10.43;;;3.90;;
